sensor_id;sensor_type;location;lat;lon;timestamp;temperature;humidity
8475;DHT22;4274;52.012;8.448;2023-08-20T00:00:17;20.00;99.90
8475;DHT22;4274;52.012;8.448;2023-08-20T00:02:46;20.00;99.90
8475;DHT22;4274;52.012;8.448;2023-08-20T00:05:12;19.90;99.90
8475;DHT22;4274;52.012;8.448;2023-08-20T00:07:39;19.80;99.90
8475;DHT22;4274;52.012;8.448;2023-08-20T00:10:05;19.80;99.90
8475;DHT22;4274;52.012;8.448;2023-08-20T00:12:31;19.70;99.90
8475;DHT22;4274;52.012;8.448;2023-08-20T00:17:37;19.60;99.90
8475;DHT22;4274;52.012;8.448;2023-08-20T00:20:05;19.60;99.90
8475;DHT22;4274;52.012;8.448;2023-08-20T00:22:36;19.60;99.90
8475;DHT22;4274;52.012;8.448;2023-08-20T00:25:02;19.50;99.90
8475;DHT22;4274;52.012;8.448;2023-08-20T00:27:29;19.50;99.90
8475;DHT22;4274;52.012;8.448;2023-08-20T00:29:54;19.50;99.90
8475;DHT22;4274;52.012;8.448;2023-08-20T00:32:20;19.50;99.90
8475;DHT22;4274;52.012;8.448;2023-08-20T00:34:46;19.50;99.90
8475;DHT22;4274;52.012;8.448;2023-08-20T00:37:11;19.50;99.90
8475;DHT22;4274;52.012;8.448;2023-08-20T00:39:37;19.50;99.90
8475;DHT22;4274;52.012;8.448;2023-08-20T00:42:03;19.40;99.90
8475;DHT22;4274;52.012;8.448;2023-08-20T00:44:30;19.40;99.90
8475;DHT22;4274;52.012;8.448;2023-08-20T00:46:56;19.30;99.90
8475;DHT22;4274;52.012;8.448;2023-08-20T00:49:22;19.30;99.90
8475;DHT22;4274;52.012;8.448;2023-08-20T00:51:48;19.30;99.90
8475;DHT22;4274;52.012;8.448;2023-08-20T00:54:14;19.30;99.90
8475;DHT22;4274;52.012;8.448;2023-08-20T00:56:40;19.30;99.90
8475;DHT22;4274;52.012;8.448;2023-08-20T00:59:06;19.30;99.90
8475;DHT22;4274;52.012;8.448;2023-08-20T01:01:31;19.20;99.90
8475;DHT22;4274;52.012;8.448;2023-08-20T01:03:57;19.20;99.90
8475;DHT22;4274;52.012;8.448;2023-08-20T01:06:44;19.20;99.90
8475;DHT22;4274;52.012;8.448;2023-08-20T01:10:13;19.20;99.90
8475;DHT22;4274;52.012;8.448;2023-08-20T01:12:19;19.20;99.90
8475;DHT22;4274;52.012;8.448;2023-08-20T01:14:45;19.10;99.90
8475;DHT22;4274;52.012;8.448;2023-08-20T01:17:11;19.10;99.90
8475;DHT22;4274;52.012;8.448;2023-08-20T01:19:37;19.10;99.90
8475;DHT22;4274;52.012;8.448;2023-08-20T01:30:40;19.00;99.90
8475;DHT22;4274;52.012;8.448;2023-08-20T01:33:07;18.90;99.90
8475;DHT22;4274;52.012;8.448;2023-08-20T01:35:33;18.90;99.90
8475;DHT22;4274;52.012;8.448;2023-08-20T01:37:58;18.90;99.90
8475;DHT22;4274;52.012;8.448;2023-08-20T01:40:24;19.00;99.90
8475;DHT22;4274;52.012;8.448;2023-08-20T01:42:50;19.00;99.90
8475;DHT22;4274;52.012;8.448;2023-08-20T01:45:15;18.90;99.90
8475;DHT22;4274;52.012;8.448;2023-08-20T01:47:41;19.00;99.90
8475;DHT22;4274;52.012;8.448;2023-08-20T01:50:06;18.90;99.90
8475;DHT22;4274;52.012;8.448;2023-08-20T01:52:32;19.00;99.90
8475;DHT22;4274;52.012;8.448;2023-08-20T01:54:58;18.90;99.90
8475;DHT22;4274;52.012;8.448;2023-08-20T01:57:23;18.90;99.90
8475;DHT22;4274;52.012;8.448;2023-08-20T01:59:49;18.90;99.90
8475;DHT22;4274;52.012;8.448;2023-08-20T02:02:14;18.90;99.90
8475;DHT22;4274;52.012;8.448;2023-08-20T02:04:40;18.90;99.90
8475;DHT22;4274;52.012;8.448;2023-08-20T02:07:06;18.90;99.90
8475;DHT22;4274;52.012;8.448;2023-08-20T02:09:31;18.80;99.90
8475;DHT22;4274;52.012;8.448;2023-08-20T02:11:57;18.80;99.90
8475;DHT22;4274;52.012;8.448;2023-08-20T02:14:22;18.80;99.90
8475;DHT22;4274;52.012;8.448;2023-08-20T02:16:48;18.70;99.90
8475;DHT22;4274;52.012;8.448;2023-08-20T02:19:14;18.70;99.90
8475;DHT22;4274;52.012;8.448;2023-08-20T02:21:40;18.70;99.90
8475;DHT22;4274;52.012;8.448;2023-08-20T02:24:06;18.80;99.90
8475;DHT22;4274;52.012;8.448;2023-08-20T02:26:31;18.70;99.90
8475;DHT22;4274;52.012;8.448;2023-08-20T02:28:57;18.80;99.90
8475;DHT22;4274;52.012;8.448;2023-08-20T02:31:22;18.80;99.90
8475;DHT22;4274;52.012;8.448;2023-08-20T02:33:48;18.80;99.90
8475;DHT22;4274;52.012;8.448;2023-08-20T02:36:14;18.80;99.90
8475;DHT22;4274;52.012;8.448;2023-08-20T02:38:39;18.90;99.90
8475;DHT22;4274;52.012;8.448;2023-08-20T02:41:05;18.90;99.90
8475;DHT22;4274;52.012;8.448;2023-08-20T02:43:31;19.00;99.90
8475;DHT22;4274;52.012;8.448;2023-08-20T02:45:56;19.00;99.90
8475;DHT22;4274;52.012;8.448;2023-08-20T02:48:22;19.10;99.90
8475;DHT22;4274;52.012;8.448;2023-08-20T02:50:53;19.10;99.90
8475;DHT22;4274;52.012;8.448;2023-08-20T02:53:19;19.10;99.90
8475;DHT22;4274;52.012;8.448;2023-08-20T02:55:44;19.10;99.90
8475;DHT22;4274;52.012;8.448;2023-08-20T02:58:10;19.10;99.90
8475;DHT22;4274;52.012;8.448;2023-08-20T03:00:35;19.10;99.90
8475;DHT22;4274;52.012;8.448;2023-08-20T03:03:02;19.10;99.90
8475;DHT22;4274;52.012;8.448;2023-08-20T03:05:31;19.10;99.90
8475;DHT22;4274;52.012;8.448;2023-08-20T03:07:57;19.10;99.90
8475;DHT22;4274;52.012;8.448;2023-08-20T03:10:23;19.10;99.90
8475;DHT22;4274;52.012;8.448;2023-08-20T03:12:49;19.10;99.90
8475;DHT22;4274;52.012;8.448;2023-08-20T03:15:14;19.10;99.90
8475;DHT22;4274;52.012;8.448;2023-08-20T03:17:40;19.00;99.90
8475;DHT22;4274;52.012;8.448;2023-08-20T03:20:06;19.10;99.90
8475;DHT22;4274;52.012;8.448;2023-08-20T03:22:32;19.00;99.90
8475;DHT22;4274;52.012;8.448;2023-08-20T03:24:57;19.00;99.90
8475;DHT22;4274;52.012;8.448;2023-08-20T03:27:23;19.00;99.90
8475;DHT22;4274;52.012;8.448;2023-08-20T03:29:48;19.00;99.90
8475;DHT22;4274;52.012;8.448;2023-08-20T03:32:15;19.00;99.90
8475;DHT22;4274;52.012;8.448;2023-08-20T03:34:40;19.00;99.90
8475;DHT22;4274;52.012;8.448;2023-08-20T03:37:06;18.90;99.90
8475;DHT22;4274;52.012;8.448;2023-08-20T03:39:31;18.90;99.90
8475;DHT22;4274;52.012;8.448;2023-08-20T03:41:57;18.80;99.90
8475;DHT22;4274;52.012;8.448;2023-08-20T03:44:23;18.80;99.90
8475;DHT22;4274;52.012;8.448;2023-08-20T03:46:49;18.70;99.90
8475;DHT22;4274;52.012;8.448;2023-08-20T03:49:14;18.70;99.90
8475;DHT22;4274;52.012;8.448;2023-08-20T03:51:40;18.60;99.90
8475;DHT22;4274;52.012;8.448;2023-08-20T03:54:08;18.50;99.90
8475;DHT22;4274;52.012;8.448;2023-08-20T03:56:33;18.50;99.90
8475;DHT22;4274;52.012;8.448;2023-08-20T03:58:59;18.50;99.90
8475;DHT22;4274;52.012;8.448;2023-08-20T04:01:24;18.40;99.90
8475;DHT22;4274;52.012;8.448;2023-08-20T04:03:50;18.40;99.90
8475;DHT22;4274;52.012;8.448;2023-08-20T04:06:15;18.50;99.90
8475;DHT22;4274;52.012;8.448;2023-08-20T04:08:41;18.50;99.90
8475;DHT22;4274;52.012;8.448;2023-08-20T04:13:38;18.40;99.90
8475;DHT22;4274;52.012;8.448;2023-08-20T04:16:05;18.40;99.90
8475;DHT22;4274;52.012;8.448;2023-08-20T04:18:30;18.40;99.90
8475;DHT22;4274;52.012;8.448;2023-08-20T04:20:56;18.40;99.90
8475;DHT22;4274;52.012;8.448;2023-08-20T04:23:22;18.40;99.90
8475;DHT22;4274;52.012;8.448;2023-08-20T04:25:48;18.40;99.90
8475;DHT22;4274;52.012;8.448;2023-08-20T04:28:14;18.30;99.90
8475;DHT22;4274;52.012;8.448;2023-08-20T04:30:39;18.30;99.90
8475;DHT22;4274;52.012;8.448;2023-08-20T04:33:05;18.30;99.90
8475;DHT22;4274;52.012;8.448;2023-08-20T04:35:31;18.40;99.90
8475;DHT22;4274;52.012;8.448;2023-08-20T04:37:57;18.40;99.90
8475;DHT22;4274;52.012;8.448;2023-08-20T04:40:23;18.40;99.90
8475;DHT22;4274;52.012;8.448;2023-08-20T04:42:49;18.50;99.90
8475;DHT22;4274;52.012;8.448;2023-08-20T04:45:14;18.50;99.90
8475;DHT22;4274;52.012;8.448;2023-08-20T04:47:43;18.50;99.90
8475;DHT22;4274;52.012;8.448;2023-08-20T04:50:09;18.50;99.90
8475;DHT22;4274;52.012;8.448;2023-08-20T04:52:34;18.60;99.90
8475;DHT22;4274;52.012;8.448;2023-08-20T04:55:01;18.60;99.90
8475;DHT22;4274;52.012;8.448;2023-08-20T04:57:26;18.60;99.90
8475;DHT22;4274;52.012;8.448;2023-08-20T04:59:52;18.70;99.90
8475;DHT22;4274;52.012;8.448;2023-08-20T05:02:18;18.70;99.90
8475;DHT22;4274;52.012;8.448;2023-08-20T05:04:43;18.70;99.90
8475;DHT22;4274;52.012;8.448;2023-08-20T05:07:09;18.70;99.90
8475;DHT22;4274;52.012;8.448;2023-08-20T05:09:35;18.70;99.90
8475;DHT22;4274;52.012;8.448;2023-08-20T05:12:00;18.70;99.90
8475;DHT22;4274;52.012;8.448;2023-08-20T05:14:26;18.70;99.90
8475;DHT22;4274;52.012;8.448;2023-08-20T05:16:52;18.70;99.90
8475;DHT22;4274;52.012;8.448;2023-08-20T05:19:17;18.70;99.90
8475;DHT22;4274;52.012;8.448;2023-08-20T05:21:43;18.70;99.90
8475;DHT22;4274;52.012;8.448;2023-08-20T05:24:09;18.70;99.90
8475;DHT22;4274;52.012;8.448;2023-08-20T05:26:34;18.70;99.90
8475;DHT22;4274;52.012;8.448;2023-08-20T05:29:00;18.70;99.90
8475;DHT22;4274;52.012;8.448;2023-08-20T05:31:25;18.80;99.90
8475;DHT22;4274;52.012;8.448;2023-08-20T05:33:51;18.80;99.90
8475;DHT22;4274;52.012;8.448;2023-08-20T05:36:17;18.80;99.90
8475;DHT22;4274;52.012;8.448;2023-08-20T05:38:42;18.90;99.90
8475;DHT22;4274;52.012;8.448;2023-08-20T05:41:08;18.90;99.90
8475;DHT22;4274;52.012;8.448;2023-08-20T05:43:34;19.00;99.90
8475;DHT22;4274;52.012;8.448;2023-08-20T05:46:02;19.00;99.90
8475;DHT22;4274;52.012;8.448;2023-08-20T05:48:28;19.10;99.90
8475;DHT22;4274;52.012;8.448;2023-08-20T05:50:53;19.20;99.90
8475;DHT22;4274;52.012;8.448;2023-08-20T05:53:19;19.30;99.90
8475;DHT22;4274;52.012;8.448;2023-08-20T05:55:44;19.40;99.90
8475;DHT22;4274;52.012;8.448;2023-08-20T05:58:10;19.50;99.90
8475;DHT22;4274;52.012;8.448;2023-08-20T06:00:36;19.50;99.90
8475;DHT22;4274;52.012;8.448;2023-08-20T06:03:02;19.60;99.90
8475;DHT22;4274;52.012;8.448;2023-08-20T06:05:27;19.70;99.90
8475;DHT22;4274;52.012;8.448;2023-08-20T06:07:53;19.70;99.90
8475;DHT22;4274;52.012;8.448;2023-08-20T06:10:18;19.90;99.90
8475;DHT22;4274;52.012;8.448;2023-08-20T06:12:44;20.10;99.90
8475;DHT22;4274;52.012;8.448;2023-08-20T06:15:09;20.20;99.90
8475;DHT22;4274;52.012;8.448;2023-08-20T06:17:35;20.50;99.90
8475;DHT22;4274;52.012;8.448;2023-08-20T06:20:01;20.60;99.90
8475;DHT22;4274;52.012;8.448;2023-08-20T06:22:26;20.70;99.90
8475;DHT22;4274;52.012;8.448;2023-08-20T06:24:52;20.90;99.90
8475;DHT22;4274;52.012;8.448;2023-08-20T06:27:17;21.10;99.90
8475;DHT22;4274;52.012;8.448;2023-08-20T06:29:43;21.20;99.90
8475;DHT22;4274;52.012;8.448;2023-08-20T06:32:08;21.30;99.90
8475;DHT22;4274;52.012;8.448;2023-08-20T06:34:34;21.40;99.90
8475;DHT22;4274;52.012;8.448;2023-08-20T06:37:01;21.40;99.90
8475;DHT22;4274;52.012;8.448;2023-08-20T06:39:27;21.40;99.90
8475;DHT22;4274;52.012;8.448;2023-08-20T06:41:53;21.50;99.90
8475;DHT22;4274;52.012;8.448;2023-08-20T06:44:18;21.60;99.90
8475;DHT22;4274;52.012;8.448;2023-08-20T06:46:44;21.70;99.90
8475;DHT22;4274;52.012;8.448;2023-08-20T06:49:09;21.80;99.90
8475;DHT22;4274;52.012;8.448;2023-08-20T06:51:35;21.80;99.90
8475;DHT22;4274;52.012;8.448;2023-08-20T06:54:01;21.90;99.90
8475;DHT22;4274;52.012;8.448;2023-08-20T06:56:26;22.00;99.90
8475;DHT22;4274;52.012;8.448;2023-08-20T06:58:52;22.10;99.90
8475;DHT22;4274;52.012;8.448;2023-08-20T07:01:19;22.10;99.90
8475;DHT22;4274;52.012;8.448;2023-08-20T07:03:45;22.20;99.90
8475;DHT22;4274;52.012;8.448;2023-08-20T07:06:11;22.30;99.90
8475;DHT22;4274;52.012;8.448;2023-08-20T07:08:39;22.40;99.90
8475;DHT22;4274;52.012;8.448;2023-08-20T07:11:06;22.50;99.90
8475;DHT22;4274;52.012;8.448;2023-08-20T07:13:31;22.60;99.90
8475;DHT22;4274;52.012;8.448;2023-08-20T07:15:57;22.60;99.90
8475;DHT22;4274;52.012;8.448;2023-08-20T07:18:22;22.70;99.90
8475;DHT22;4274;52.012;8.448;2023-08-20T07:20:49;22.90;99.90
8475;DHT22;4274;52.012;8.448;2023-08-20T07:23:15;23.00;99.90
8475;DHT22;4274;52.012;8.448;2023-08-20T07:25:41;23.20;99.90
8475;DHT22;4274;52.012;8.448;2023-08-20T07:28:08;23.10;99.90
8475;DHT22;4274;52.012;8.448;2023-08-20T07:30:35;23.10;99.90
8475;DHT22;4274;52.012;8.448;2023-08-20T07:33:01;23.30;99.90
8475;DHT22;4274;52.012;8.448;2023-08-20T07:35:27;23.40;99.90
8475;DHT22;4274;52.012;8.448;2023-08-20T07:37:53;23.50;99.90
8475;DHT22;4274;52.012;8.448;2023-08-20T07:40:19;23.70;99.90
8475;DHT22;4274;52.012;8.448;2023-08-20T07:42:44;23.70;99.90
8475;DHT22;4274;52.012;8.448;2023-08-20T07:45:10;23.90;99.90
8475;DHT22;4274;52.012;8.448;2023-08-20T07:47:36;24.00;99.90
8475;DHT22;4274;52.012;8.448;2023-08-20T07:50:03;24.00;99.90
8475;DHT22;4274;52.012;8.448;2023-08-20T07:52:30;24.10;99.90
8475;DHT22;4274;52.012;8.448;2023-08-20T07:54:56;24.20;99.90
8475;DHT22;4274;52.012;8.448;2023-08-20T07:57:21;24.20;99.90
8475;DHT22;4274;52.012;8.448;2023-08-20T07:59:49;24.10;99.90
8475;DHT22;4274;52.012;8.448;2023-08-20T08:02:15;24.00;99.90
8475;DHT22;4274;52.012;8.448;2023-08-20T08:04:41;24.00;99.90
8475;DHT22;4274;52.012;8.448;2023-08-20T08:07:07;24.10;99.90
8475;DHT22;4274;52.012;8.448;2023-08-20T08:09:32;24.20;99.90
8475;DHT22;4274;52.012;8.448;2023-08-20T08:11:58;24.40;99.90
8475;DHT22;4274;52.012;8.448;2023-08-20T08:14:24;24.50;99.90
8475;DHT22;4274;52.012;8.448;2023-08-20T08:16:50;24.70;99.90
8475;DHT22;4274;52.012;8.448;2023-08-20T08:19:16;24.90;99.90
8475;DHT22;4274;52.012;8.448;2023-08-20T08:21:43;25.00;99.90
8475;DHT22;4274;52.012;8.448;2023-08-20T08:24:11;25.00;99.90
8475;DHT22;4274;52.012;8.448;2023-08-20T08:26:37;24.90;99.90
8475;DHT22;4274;52.012;8.448;2023-08-20T08:29:03;25.10;99.90
8475;DHT22;4274;52.012;8.448;2023-08-20T08:31:29;25.20;99.90
8475;DHT22;4274;52.012;8.448;2023-08-20T08:33:55;25.20;99.90
8475;DHT22;4274;52.012;8.448;2023-08-20T08:36:20;25.30;99.90
8475;DHT22;4274;52.012;8.448;2023-08-20T08:38:46;25.40;99.90
8475;DHT22;4274;52.012;8.448;2023-08-20T08:41:13;25.50;99.90
8475;DHT22;4274;52.012;8.448;2023-08-20T08:43:39;25.80;99.90
8475;DHT22;4274;52.012;8.448;2023-08-20T08:46:12;25.90;99.90
8475;DHT22;4274;52.012;8.448;2023-08-20T08:48:40;26.00;99.90
8475;DHT22;4274;52.012;8.448;2023-08-20T08:51:07;26.20;99.90
8475;DHT22;4274;52.012;8.448;2023-08-20T08:53:33;26.40;99.90
8475;DHT22;4274;52.012;8.448;2023-08-20T08:55:59;26.60;99.90
8475;DHT22;4274;52.012;8.448;2023-08-20T08:58:25;26.70;99.90
8475;DHT22;4274;52.012;8.448;2023-08-20T09:00:52;26.70;99.90
8475;DHT22;4274;52.012;8.448;2023-08-20T09:03:17;26.80;99.90
8475;DHT22;4274;52.012;8.448;2023-08-20T09:05:50;27.00;99.90
8475;DHT22;4274;52.012;8.448;2023-08-20T09:08:20;27.30;99.90
8475;DHT22;4274;52.012;8.448;2023-08-20T09:10:46;27.40;99.90
8475;DHT22;4274;52.012;8.448;2023-08-20T09:13:15;27.60;99.90
8475;DHT22;4274;52.012;8.448;2023-08-20T09:15:41;27.70;99.90
8475;DHT22;4274;52.012;8.448;2023-08-20T09:18:09;27.70;99.90
8475;DHT22;4274;52.012;8.448;2023-08-20T09:20:38;27.70;99.90
8475;DHT22;4274;52.012;8.448;2023-08-20T09:23:05;27.80;99.90
8475;DHT22;4274;52.012;8.448;2023-08-20T09:25:35;28.00;99.90
8475;DHT22;4274;52.012;8.448;2023-08-20T09:28:04;28.20;99.90
8475;DHT22;4274;52.012;8.448;2023-08-20T09:30:30;28.30;99.90
8475;DHT22;4274;52.012;8.448;2023-08-20T09:33:11;28.40;99.90
8475;DHT22;4274;52.012;8.448;2023-08-20T09:35:38;28.70;99.90
8475;DHT22;4274;52.012;8.448;2023-08-20T09:38:13;29.00;99.90
8475;DHT22;4274;52.012;8.448;2023-08-20T09:40:39;29.30;99.90
8475;DHT22;4274;52.012;8.448;2023-08-20T09:43:05;29.60;99.90
8475;DHT22;4274;52.012;8.448;2023-08-20T09:45:34;29.90;99.90
8475;DHT22;4274;52.012;8.448;2023-08-20T09:48:02;30.10;99.90
8475;DHT22;4274;52.012;8.448;2023-08-20T09:50:32;30.40;99.90
8475;DHT22;4274;52.012;8.448;2023-08-20T09:56:27;31.00;99.90
8475;DHT22;4274;52.012;8.448;2023-08-20T09:58:54;31.00;99.90
8475;DHT22;4274;52.012;8.448;2023-08-20T10:01:20;30.80;99.90
8475;DHT22;4274;52.012;8.448;2023-08-20T10:03:46;30.60;99.90
8475;DHT22;4274;52.012;8.448;2023-08-20T10:06:12;30.40;99.90
8475;DHT22;4274;52.012;8.448;2023-08-20T10:08:38;30.70;99.90
8475;DHT22;4274;52.012;8.448;2023-08-20T10:11:03;31.30;99.90
8475;DHT22;4274;52.012;8.448;2023-08-20T10:13:29;32.00;99.90
8475;DHT22;4274;52.012;8.448;2023-08-20T10:15:56;32.60;99.90
8475;DHT22;4274;52.012;8.448;2023-08-20T10:18:22;32.80;99.90
8475;DHT22;4274;52.012;8.448;2023-08-20T10:20:50;33.00;99.90
8475;DHT22;4274;52.012;8.448;2023-08-20T10:23:20;33.30;99.90
8475;DHT22;4274;52.012;8.448;2023-08-20T10:25:46;33.90;99.90
8475;DHT22;4274;52.012;8.448;2023-08-20T10:28:14;34.10;99.90
8475;DHT22;4274;52.012;8.448;2023-08-20T10:31:09;34.00;99.90
8475;DHT22;4274;52.012;8.448;2023-08-20T10:33:56;34.40;99.90
8475;DHT22;4274;52.012;8.448;2023-08-20T10:36:24;33.90;99.90
8475;DHT22;4274;52.012;8.448;2023-08-20T10:38:56;33.10;99.90
8475;DHT22;4274;52.012;8.448;2023-08-20T10:41:26;32.40;99.90
8475;DHT22;4274;52.012;8.448;2023-08-20T10:43:51;31.90;99.90
8475;DHT22;4274;52.012;8.448;2023-08-20T10:46:22;31.60;99.90
8475;DHT22;4274;52.012;8.448;2023-08-20T10:48:56;31.20;99.90
8475;DHT22;4274;52.012;8.448;2023-08-20T10:51:32;30.80;99.90
8475;DHT22;4274;52.012;8.448;2023-08-20T10:56:47;29.90;99.90
8475;DHT22;4274;52.012;8.448;2023-08-20T10:59:32;29.90;99.90
8475;DHT22;4274;52.012;8.448;2023-08-20T11:02:01;30.80;99.90
8475;DHT22;4274;52.012;8.448;2023-08-20T11:04:30;31.70;99.90
8475;DHT22;4274;52.012;8.448;2023-08-20T11:07:00;32.40;99.90
8475;DHT22;4274;52.012;8.448;2023-08-20T11:09:30;33.00;99.90
8475;DHT22;4274;52.012;8.448;2023-08-20T11:11:56;33.00;99.90
8475;DHT22;4274;52.012;8.448;2023-08-20T11:14:22;33.30;99.90
8475;DHT22;4274;52.012;8.448;2023-08-20T11:16:49;33.60;99.90
8475;DHT22;4274;52.012;8.448;2023-08-20T11:19:19;33.70;99.90
8475;DHT22;4274;52.012;8.448;2023-08-20T11:21:46;33.30;99.90
8475;DHT22;4274;52.012;8.448;2023-08-20T11:24:12;32.40;99.90
8475;DHT22;4274;52.012;8.448;2023-08-20T11:26:42;31.60;99.90
8475;DHT22;4274;52.012;8.448;2023-08-20T11:29:09;30.90;99.90
8475;DHT22;4274;52.012;8.448;2023-08-20T11:31:36;31.10;99.90
8475;DHT22;4274;52.012;8.448;2023-08-20T11:34:03;32.10;99.90
8475;DHT22;4274;52.012;8.448;2023-08-20T11:36:28;33.10;99.90
8475;DHT22;4274;52.012;8.448;2023-08-20T11:38:54;34.30;99.90
8475;DHT22;4274;52.012;8.448;2023-08-20T11:41:21;35.50;99.90
8475;DHT22;4274;52.012;8.448;2023-08-20T11:43:48;36.50;99.90
8475;DHT22;4274;52.012;8.448;2023-08-20T11:46:14;37.40;99.90
8475;DHT22;4274;52.012;8.448;2023-08-20T11:49:06;38.00;99.90
8475;DHT22;4274;52.012;8.448;2023-08-20T11:51:48;37.70;99.90
8475;DHT22;4274;52.012;8.448;2023-08-20T11:54:16;36.40;99.90
8475;DHT22;4274;52.012;8.448;2023-08-20T11:56:46;34.90;99.90
8475;DHT22;4274;52.012;8.448;2023-08-20T11:59:13;34.10;99.90
8475;DHT22;4274;52.012;8.448;2023-08-20T12:01:39;34.40;99.90
8475;DHT22;4274;52.012;8.448;2023-08-20T12:04:06;34.70;99.90
8475;DHT22;4274;52.012;8.448;2023-08-20T12:06:32;35.00;99.90
8475;DHT22;4274;52.012;8.448;2023-08-20T12:08:59;35.10;99.90
8475;DHT22;4274;52.012;8.448;2023-08-20T12:11:28;34.80;99.90
8475;DHT22;4274;52.012;8.448;2023-08-20T12:13:54;34.30;99.90
8475;DHT22;4274;52.012;8.448;2023-08-20T12:16:22;33.40;99.90
8475;DHT22;4274;52.012;8.448;2023-08-20T12:18:48;32.70;99.90
8475;DHT22;4274;52.012;8.448;2023-08-20T12:21:14;32.40;99.90
8475;DHT22;4274;52.012;8.448;2023-08-20T12:23:40;32.00;99.90
8475;DHT22;4274;52.012;8.448;2023-08-20T12:26:06;31.80;99.90
8475;DHT22;4274;52.012;8.448;2023-08-20T12:28:33;32.20;99.90
8475;DHT22;4274;52.012;8.448;2023-08-20T12:30:59;32.70;99.90
8475;DHT22;4274;52.012;8.448;2023-08-20T12:33:24;33.40;99.90
8475;DHT22;4274;52.012;8.448;2023-08-20T12:35:50;33.90;99.90
8475;DHT22;4274;52.012;8.448;2023-08-20T12:38:15;34.00;99.90
8475;DHT22;4274;52.012;8.448;2023-08-20T12:40:41;33.60;99.90
8475;DHT22;4274;52.012;8.448;2023-08-20T12:43:06;33.70;99.90
8475;DHT22;4274;52.012;8.448;2023-08-20T12:45:32;34.10;99.90
8475;DHT22;4274;52.012;8.448;2023-08-20T12:47:58;34.60;99.90
8475;DHT22;4274;52.012;8.448;2023-08-20T12:50:23;35.00;99.90
8475;DHT22;4274;52.012;8.448;2023-08-20T12:52:51;35.30;99.90
8475;DHT22;4274;52.012;8.448;2023-08-20T12:55:16;35.40;99.90
8475;DHT22;4274;52.012;8.448;2023-08-20T12:57:56;35.50;99.90
8475;DHT22;4274;52.012;8.448;2023-08-20T13:00:22;35.70;99.90
8475;DHT22;4274;52.012;8.448;2023-08-20T13:02:48;35.70;99.90
8475;DHT22;4274;52.012;8.448;2023-08-20T13:05:14;35.90;99.90
8475;DHT22;4274;52.012;8.448;2023-08-20T13:07:40;35.40;99.90
8475;DHT22;4274;52.012;8.448;2023-08-20T13:10:06;34.60;99.90
8475;DHT22;4274;52.012;8.448;2023-08-20T13:12:34;34.30;99.90
8475;DHT22;4274;52.012;8.448;2023-08-20T13:15:00;34.60;99.90
8475;DHT22;4274;52.012;8.448;2023-08-20T13:17:26;35.00;99.90
8475;DHT22;4274;52.012;8.448;2023-08-20T13:19:51;35.40;99.90
8475;DHT22;4274;52.012;8.448;2023-08-20T13:22:17;35.40;99.90
8475;DHT22;4274;52.012;8.448;2023-08-20T13:24:43;35.50;99.90
8475;DHT22;4274;52.012;8.448;2023-08-20T13:27:09;35.40;99.90
8475;DHT22;4274;52.012;8.448;2023-08-20T13:29:34;35.30;99.90
8475;DHT22;4274;52.012;8.448;2023-08-20T13:32:00;35.10;99.90
8475;DHT22;4274;52.012;8.448;2023-08-20T13:34:26;34.80;99.90
8475;DHT22;4274;52.012;8.448;2023-08-20T13:36:51;34.30;99.90
8475;DHT22;4274;52.012;8.448;2023-08-20T13:39:17;33.70;99.90
8475;DHT22;4274;52.012;8.448;2023-08-20T13:41:44;32.80;99.90
8475;DHT22;4274;52.012;8.448;2023-08-20T13:44:09;32.20;99.90
8475;DHT22;4274;52.012;8.448;2023-08-20T13:46:36;31.70;99.90
8475;DHT22;4274;52.012;8.448;2023-08-20T13:49:01;31.40;99.90
8475;DHT22;4274;52.012;8.448;2023-08-20T13:51:28;31.10;99.90
8475;DHT22;4274;52.012;8.448;2023-08-20T13:53:54;31.00;99.90
8475;DHT22;4274;52.012;8.448;2023-08-20T13:56:19;30.90;99.90
8475;DHT22;4274;52.012;8.448;2023-08-20T13:58:45;30.80;99.90
8475;DHT22;4274;52.012;8.448;2023-08-20T14:01:10;30.60;99.90
8475;DHT22;4274;52.012;8.448;2023-08-20T14:03:38;30.40;99.90
8475;DHT22;4274;52.012;8.448;2023-08-20T14:06:03;30.30;99.90
8475;DHT22;4274;52.012;8.448;2023-08-20T14:08:29;30.20;99.90
8475;DHT22;4274;52.012;8.448;2023-08-20T14:10:54;30.10;99.90
8475;DHT22;4274;52.012;8.448;2023-08-20T14:13:20;29.80;99.90
8475;DHT22;4274;52.012;8.448;2023-08-20T14:15:46;29.40;99.90
8475;DHT22;4274;52.012;8.448;2023-08-20T14:18:11;29.10;99.90
8475;DHT22;4274;52.012;8.448;2023-08-20T14:20:37;28.90;99.90
8475;DHT22;4274;52.012;8.448;2023-08-20T14:23:02;28.80;99.90
8475;DHT22;4274;52.012;8.448;2023-08-20T14:25:28;28.90;99.90
8475;DHT22;4274;52.012;8.448;2023-08-20T14:27:54;29.00;99.90
8475;DHT22;4274;52.012;8.448;2023-08-20T14:30:19;28.80;99.90
8475;DHT22;4274;52.012;8.448;2023-08-20T14:32:45;28.70;99.90
8475;DHT22;4274;52.012;8.448;2023-08-20T14:35:11;28.50;99.90
8475;DHT22;4274;52.012;8.448;2023-08-20T14:37:37;28.50;99.90
8475;DHT22;4274;52.012;8.448;2023-08-20T14:40:03;28.60;99.90
8475;DHT22;4274;52.012;8.448;2023-08-20T14:42:32;28.60;99.90
8475;DHT22;4274;52.012;8.448;2023-08-20T14:44:57;28.50;99.90
8475;DHT22;4274;52.012;8.448;2023-08-20T14:47:23;28.40;99.90
8475;DHT22;4274;52.012;8.448;2023-08-20T14:49:48;28.30;99.90
8475;DHT22;4274;52.012;8.448;2023-08-20T14:52:14;28.20;99.90
8475;DHT22;4274;52.012;8.448;2023-08-20T14:54:41;28.00;99.90
8475;DHT22;4274;52.012;8.448;2023-08-20T14:57:07;27.90;99.90
8475;DHT22;4274;52.012;8.448;2023-08-20T14:59:33;27.80;99.90
8475;DHT22;4274;52.012;8.448;2023-08-20T15:01:59;27.80;99.90
8475;DHT22;4274;52.012;8.448;2023-08-20T15:04:25;27.70;99.90
8475;DHT22;4274;52.012;8.448;2023-08-20T15:06:51;27.60;99.90
8475;DHT22;4274;52.012;8.448;2023-08-20T15:09:17;27.50;99.90
8475;DHT22;4274;52.012;8.448;2023-08-20T15:11:42;27.40;99.90
8475;DHT22;4274;52.012;8.448;2023-08-20T15:14:08;27.30;99.90
8475;DHT22;4274;52.012;8.448;2023-08-20T15:16:34;27.10;99.90
8475;DHT22;4274;52.012;8.448;2023-08-20T15:18:59;27.10;99.90
8475;DHT22;4274;52.012;8.448;2023-08-20T15:21:26;27.10;99.90
8475;DHT22;4274;52.012;8.448;2023-08-20T15:23:51;27.00;99.90
8475;DHT22;4274;52.012;8.448;2023-08-20T15:26:17;26.90;99.90
8475;DHT22;4274;52.012;8.448;2023-08-20T15:28:43;26.90;99.90
8475;DHT22;4274;52.012;8.448;2023-08-20T15:31:08;26.90;99.90
8475;DHT22;4274;52.012;8.448;2023-08-20T15:33:34;26.90;99.90
8475;DHT22;4274;52.012;8.448;2023-08-20T15:36:00;26.90;99.90
8475;DHT22;4274;52.012;8.448;2023-08-20T15:38:26;27.00;99.90
8475;DHT22;4274;52.012;8.448;2023-08-20T15:40:55;27.10;99.90
8475;DHT22;4274;52.012;8.448;2023-08-20T15:43:23;27.10;99.90
8475;DHT22;4274;52.012;8.448;2023-08-20T15:45:49;27.10;99.90
8475;DHT22;4274;52.012;8.448;2023-08-20T15:48:14;27.00;99.90
8475;DHT22;4274;52.012;8.448;2023-08-20T15:50:40;27.00;99.90
8475;DHT22;4274;52.012;8.448;2023-08-20T15:53:05;27.00;99.90
8475;DHT22;4274;52.012;8.448;2023-08-20T15:55:31;26.90;99.90
8475;DHT22;4274;52.012;8.448;2023-08-20T15:57:56;26.90;99.90
8475;DHT22;4274;52.012;8.448;2023-08-20T16:00:22;26.80;99.90
8475;DHT22;4274;52.012;8.448;2023-08-20T16:02:49;26.70;99.90
8475;DHT22;4274;52.012;8.448;2023-08-20T16:05:14;26.70;99.90
8475;DHT22;4274;52.012;8.448;2023-08-20T16:07:40;26.70;99.90
8475;DHT22;4274;52.012;8.448;2023-08-20T16:10:07;26.70;99.90
8475;DHT22;4274;52.012;8.448;2023-08-20T16:12:36;26.80;99.90
8475;DHT22;4274;52.012;8.448;2023-08-20T16:15:03;26.80;99.90
8475;DHT22;4274;52.012;8.448;2023-08-20T16:17:30;26.80;99.90